createdAt,value
2023-05-23T00:02:21.057Z,5.53
2023-05-23T00:12:24.418Z,4.40
2023-05-23T00:22:29.018Z,5.43
2023-05-23T00:32:32.244Z,5.72
2023-05-23T00:42:36.869Z,4.90
2023-05-23T00:52:40.582Z,5.03
2023-05-23T01:02:47.245Z,8.20
2023-05-23T01:13:03.209Z,8.55
2023-05-23T01:23:37.366Z,6.18
2023-05-23T01:33:42.873Z,5.80
2023-05-23T01:43:46.201Z,5.57
2023-05-23T01:53:51.321Z,5.68
2023-05-23T02:03:54.798Z,6.80
2023-05-23T02:13:59.350Z,6.82
2023-05-23T02:24:02.730Z,5.68
2023-05-23T02:34:07.362Z,5.88
2023-05-23T02:44:10.969Z,6.15
2023-05-23T02:54:16.034Z,7.00
2023-05-23T03:04:19.741Z,6.10
2023-05-23T03:14:24.390Z,6.20
2023-05-23T03:24:27.576Z,6.07
2023-05-23T03:34:33.071Z,6.40
2023-05-23T03:44:36.339Z,7.25
2023-05-23T03:54:43.652Z,5.97
2023-05-23T04:04:47.071Z,7.05
2023-05-23T04:14:52.501Z,6.50
2023-05-23T04:24:55.904Z,5.93
2023-05-23T04:35:02.182Z,6.50
2023-05-23T04:45:07.007Z,7.03
2023-05-23T04:55:34.593Z,6.00
2023-05-23T05:05:38.166Z,6.60
2023-05-23T05:15:42.894Z,5.70
2023-05-23T05:25:46.436Z,6.75
2023-05-23T05:35:52.378Z,5.90
2023-05-23T05:45:55.872Z,7.93
2023-05-23T05:56:01.238Z,6.28
2023-05-23T06:06:06.823Z,8.48
2023-05-23T06:16:12.057Z,7.20
2023-05-23T06:26:16.049Z,6.20
2023-05-23T06:36:20.758Z,7.15
2023-05-23T06:46:25.120Z,6.97
2023-05-23T06:56:29.779Z,8.55
2023-05-23T07:06:36.828Z,6.50
2023-05-23T07:16:43.265Z,9.52
2023-05-23T07:26:47.332Z,6.97
2023-05-23T07:36:52.785Z,7.47
2023-05-23T07:46:57.885Z,8.43
2023-05-23T07:57:03.237Z,7.97
2023-05-23T08:07:08.387Z,10.85
2023-05-23T08:17:25.023Z,9.30
2023-05-23T08:27:30.373Z,10.82
2023-05-23T08:37:39.933Z,11.05
2023-05-23T08:47:45.844Z,15.40
2023-05-23T08:57:52.434Z,16.65
2023-05-23T09:08:08.018Z,15.85
2023-05-23T09:18:13.347Z,16.27
2023-05-23T09:28:16.996Z,18.77
2023-05-23T09:38:22.053Z,16.83
2023-05-23T09:48:30.844Z,18.15
2023-05-23T09:58:37.296Z,17.58
2023-05-23T10:08:44.484Z,19.17
2023-05-23T10:18:56.489Z,19.08
2023-05-23T10:29:00.460Z,17.77
2023-05-23T10:39:10.923Z,17.65
2023-05-23T10:49:14.131Z,17.48
2023-05-23T10:59:28.646Z,16.83
2023-05-23T11:09:31.892Z,14.85
2023-05-23T11:19:36.596Z,15.95
2023-05-23T11:29:39.956Z,15.90
2023-05-23T11:39:44.512Z,17.15
2023-05-23T11:49:48.542Z,18.08
2023-05-23T11:59:53.191Z,17.35
2023-05-23T12:09:57.373Z,18.70
2023-05-23T12:20:02.086Z,19.58
2023-05-23T12:30:08.070Z,20.42
2023-05-23T12:40:14.737Z,18.23
2023-05-23T12:50:18.376Z,18.83
2023-05-23T13:00:23.679Z,17.67
2023-05-23T13:10:28.066Z,15.95
2023-05-23T13:20:34.326Z,14.18
2023-05-23T13:30:37.563Z,14.65
2023-05-23T13:40:42.384Z,17.85
2023-05-23T13:50:46.261Z,16.83
2023-05-23T14:00:50.911Z,15.05
2023-05-23T14:10:54.153Z,15.52
2023-05-23T14:20:58.753Z,15.77
2023-05-23T14:31:01.966Z,14.80
2023-05-23T14:41:06.727Z,17.08
2023-05-23T14:51:10.777Z,16.42
2023-05-23T15:01:16.577Z,17.77
2023-05-23T15:11:19.904Z,17.08
2023-05-23T15:21:24.487Z,17.98
2023-05-23T15:31:27.671Z,15.60
2023-05-23T15:41:32.326Z,16.65
2023-05-23T15:51:37.045Z,15.45
2023-05-23T16:01:42.553Z,14.85
2023-05-23T16:11:45.733Z,14.73
2023-05-23T16:21:50.424Z,15.10
2023-05-23T16:31:53.726Z,14.43
2023-05-23T16:42:00.350Z,13.75
2023-05-23T16:52:04.050Z,13.82
2023-05-23T17:02:10.920Z,12.25
2023-05-23T17:12:14.302Z,13.43
2023-05-23T17:22:18.923Z,13.48
2023-05-23T17:32:22.155Z,13.00
2023-05-23T17:42:27.886Z,13.10
2023-05-23T17:52:31.137Z,13.20
2023-05-23T18:02:35.821Z,13.10
2023-05-23T18:12:39.043Z,12.35
2023-05-23T18:22:43.642Z,13.40
2023-05-23T18:32:47.239Z,12.60
2023-05-23T18:42:51.964Z,12.73
2023-05-23T18:52:55.264Z,13.85
2023-05-23T19:03:00.035Z,14.18
2023-05-23T19:13:03.876Z,14.73
2023-05-23T19:23:08.519Z,14.15
2023-05-23T19:33:11.845Z,14.23
2023-05-23T19:43:17.170Z,11.57
2023-05-23T19:53:20.444Z,10.95
2023-05-23T20:03:25.050Z,11.07
2023-05-23T20:13:29.016Z,10.48
2023-05-23T20:23:33.847Z,11.50
2023-05-23T20:33:37.418Z,10.25
2023-05-23T20:43:44.737Z,11.95
2023-05-23T20:53:47.923Z,11.65
2023-05-23T21:03:52.451Z,11.50
2023-05-23T21:13:55.617Z,11.75
2023-05-23T21:24:00.216Z,9.65
2023-05-23T21:34:18.536Z,8.90
2023-05-23T21:44:27.520Z,7.80
2023-05-23T21:54:31.119Z,10.55
2023-05-23T22:04:35.805Z,8.77
2023-05-23T22:14:39.058Z,8.60
2023-05-23T22:24:43.565Z,9.10
2023-05-23T22:34:46.807Z,8.60
2023-05-23T22:44:51.439Z,9.68
2023-05-23T22:54:54.731Z,8.80
2023-05-23T23:05:01.081Z,7.72
2023-05-23T23:15:04.528Z,8.45
2023-05-23T23:25:10.794Z,8.63
2023-05-23T23:35:14.050Z,7.80
2023-05-23T23:45:18.746Z,7.53
2023-05-23T23:55:21.956Z,8.60
